Time;durP1;ratioP1;P1;durP2;ratioP2;P2;SDS_P1;SDS_P2;PMS_P1;PMS_P2;Temp;Humidity;BMP_temperature;BMP_pressure;BME280_temperature;BME280_humidity;BME280_pressure;Samples;Min_cycle;Max_cycle;Signal;HPM_P1;HPM_P2
2022/07/15 00:00:31;;;;;;;8.40;2.40;;;17.90;92.90;;;18.92;77.37;98527.63;4927063;29;20525;-76
2022/07/15 00:03:03;;;;;;;7.07;1.93;;;17.80;93.10;;;18.86;77.34;98528.53;4931806;29;20458;-76
2022/07/15 00:05:32;;;;;;;5.00;2.50;;;17.80;93.00;;;18.80;77.59;98532.91;4931856;29;20496;-76
2022/07/15 00:08:02;;;;;;;5.00;2.23;;;17.80;92.80;;;18.77;77.58;98528.06;4930929;29;20517;-76
2022/07/15 00:10:32;;;;;;;5.63;2.33;;;17.80;92.90;;;18.71;78.05;98522.88;4929099;29;20500;-76
2022/07/15 00:13:04;;;;;;;2.60;1.70;;;17.80;93.10;;;18.66;78.89;98528.03;4932759;29;20998;-76
2022/07/15 00:15:35;;;;;;;10.00;2.17;;;17.80;92.90;;;18.59;79.39;98528.13;4930991;29;20469;-77
2022/07/15 00:18:07;;;;;;;6.50;1.90;;;17.60;93.20;;;18.58;79.30;98529.97;4930985;29;20513;-76
2022/07/15 00:20:38;;;;;;;2.43;1.90;;;17.60;93.40;;;18.53;79.24;98524.53;4931255;29;21278;-76
2022/07/15 00:23:09;;;;;;;5.37;1.83;;;17.50;93.30;;;18.57;79.78;98524.88;4930097;29;20470;-76
2022/07/15 00:25:39;;;;;;;3.97;1.83;;;17.50;93.50;;;18.50;79.82;98521.53;4927223;29;20473;-76
2022/07/15 00:28:09;;;;;;;4.07;2.40;;;17.50;93.30;;;18.48;80.03;98524.38;4929018;29;20467;-76
2022/07/15 00:30:42;;;;;;;5.83;1.83;;;17.50;93.60;;;18.40;80.78;98522.03;4926972;29;20473;-76
2022/07/15 00:33:13;;;;;;;3.00;2.00;;;17.40;93.40;;;18.35;80.84;98526.41;4929228;29;20494;-76
2022/07/15 00:35:43;;;;;;;3.60;2.20;;;17.40;93.50;;;18.31;81.22;98520.75;4927960;29;20470;-76
2022/07/15 00:38:13;;;;;;;3.50;1.90;;;17.40;93.60;;;18.25;81.39;98518.19;4927526;29;20863;-76
2022/07/15 00:40:46;;;;;;;2.90;2.07;;;17.30;93.40;;;18.21;81.75;98533.72;4926699;29;20482;-76
2022/07/15 00:43:17;;;;;;;4.83;2.00;;;17.30;93.50;;;18.20;81.74;98528.63;4927869;29;20469;-76
2022/07/15 00:45:47;;;;;;;6.47;2.30;;;17.20;93.90;;;18.13;82.36;98533.22;4927103;29;20996;-76
2022/07/15 00:48:18;;;;;;;3.60;2.17;;;17.10;93.90;;;18.05;82.96;98531.66;4928363;29;20474;-76
2022/07/15 00:50:49;;;;;;;5.20;1.70;;;17.10;94.00;;;18.01;83.45;98533.94;4927301;29;20558;-76
2022/07/15 00:53:22;;;;;;;7.93;2.37;;;17.00;94.10;;;18.01;83.38;98527.88;4928361;29;20462;-76
2022/07/15 00:55:58;;;;;;;6.07;2.17;;;17.10;93.70;;;17.97;83.52;98516.94;4926781;29;20474;-76
2022/07/15 00:58:30;;;;;;;6.73;2.30;;;17.10;93.80;;;17.91;83.92;98528.38;4928040;29;20984;-76
2022/07/15 01:01:02;;;;;;;6.33;2.70;;;17.00;94.10;;;17.87;84.37;98521.13;4927928;29;20957;-76
2022/07/15 01:03:34;;;;;;;5.63;2.30;;;16.90;94.10;;;17.85;84.59;98523.97;4927405;29;21089;-76
2022/07/15 01:06:05;;;;;;;6.27;1.93;;;16.90;94.20;;;17.78;85.32;98519.78;4930700;29;21001;-76
2022/07/15 01:08:35;;;;;;;2.60;1.67;;;16.70;94.30;;;17.79;84.98;98516.13;4930176;29;20462;-76
2022/07/15 01:11:06;;;;;;;2.10;1.80;;;16.80;94.10;;;17.76;85.19;98516.56;4927574;29;20582;-76
2022/07/15 01:13:38;;;;;;;4.47;2.23;;;16.80;94.20;;;17.75;85.67;98517.59;4928184;29;20881;-76
2022/07/15 01:16:09;;;;;;;2.60;1.90;;;16.70;94.30;;;17.74;85.11;98521.25;4928191;29;20526;-76
2022/07/15 01:18:39;;;;;;;4.57;2.13;;;16.70;94.40;;;17.69;85.72;98518.47;4925575;29;20466;-76
2022/07/15 01:21:11;;;;;;;3.13;2.10;;;16.70;94.60;;;17.63;86.12;98517.53;4927790;29;20506;-76
2022/07/15 01:23:43;;;;;;;9.30;2.57;;;16.60;94.50;;;17.58;86.85;98522.66;4928839;29;20477;-76
2022/07/15 01:26:13;;;;;;;7.10;2.70;;;16.60;94.70;;;17.55;87.09;98523.88;4927356;29;20462;-76
2022/07/15 01:28:45;;;;;;;4.93;2.60;;;16.50;94.70;;;17.47;87.64;98526.81;4927044;29;20470;-76
2022/07/15 01:31:14;;;;;;;2.97;2.00;;;16.50;94.80;;;17.44;87.74;98527.25;4927281;29;20474;-76
2022/07/15 01:33:45;;;;;;;3.27;2.20;;;16.40;94.90;;;17.38;88.26;98520.19;4924422;29;20502;-76
2022/07/15 01:36:17;;;;;;;6.03;2.50;;;16.40;94.90;;;17.35;88.54;98518.00;4927785;29;20470;-76
2022/07/15 01:38:46;;;;;;;6.93;1.80;;;16.30;94.90;;;17.29;89.09;98525.97;4926041;29;20550;-76
2022/07/15 01:41:25;;;;;;;3.33;2.30;;;16.30;95.00;;;17.25;89.58;98528.22;4927182;29;20553;-76
2022/07/15 01:43:55;;;;;;;3.93;2.47;;;16.30;94.80;;;17.19;89.88;98530.94;4926779;29;20495;-76
2022/07/15 01:46:24;;;;;;;4.20;2.00;;;16.30;94.90;;;17.13;90.45;98524.69;4926586;29;20498;-76
2022/07/15 01:51:46;;;;;;;8.10;2.83;;;16.20;95.00;;;17.07;90.89;98526.38;4924414;29;20848;-76
2022/07/15 01:54:15;;;;;;;6.07;1.80;;;16.10;95.40;;;17.06;91.10;98526.59;4931095;29;20502;-77
2022/07/15 01:56:46;;;;;;;4.83;2.20;;;16.10;95.40;;;16.98;91.46;98527.66;4927353;29;20463;-76
2022/07/15 01:59:15;;;;;;;7.33;2.23;;;16.10;95.30;;;16.97;91.62;98527.91;4926928;29;20486;-76
2022/07/15 02:01:45;;;;;;;3.50;2.10;;;16.10;95.20;;;16.91;91.98;98526.09;4926891;29;20480;-76
2022/07/15 02:04:15;;;;;;;3.00;2.17;;;15.90;95.40;;;16.95;92.26;98529.94;4929934;29;20863;-76
2022/07/15 02:06:47;;;;;;;2.90;1.83;;;16.00;95.60;;;16.97;91.59;98527.91;4929060;29;20463;-76
2022/07/15 02:09:17;;;;;;;3.23;2.20;;;16.00;95.30;;;16.95;91.35;98522.00;4927562;29;20469;-76
2022/07/15 02:11:46;;;;;;;5.27;2.37;;;16.00;95.20;;;16.89;91.87;98522.88;4928217;29;20525;-76
2022/07/15 02:14:16;;;;;;;8.67;2.90;;;16.00;95.40;;;16.88;91.91;98522.06;4930618;29;20474;-76
2022/07/15 02:16:47;;;;;;;5.90;2.13;;;15.90;95.40;;;16.86;91.74;98534.69;4928075;29;20550;-76
2022/07/15 02:19:17;;;;;;;4.20;1.87;;;15.90;95.50;;;16.89;91.83;98538.72;4928638;29;20521;-76
2022/07/15 02:21:50;;;;;;;3.70;2.00;;;15.90;95.20;;;16.82;92.05;98535.31;4928700;29;20544;-76
2022/07/15 02:24:21;;;;;;;3.13;2.03;;;15.90;95.30;;;16.80;92.25;98542.66;4925650;29;20820;-77
2022/07/15 02:26:51;;;;;;;3.10;2.37;;;15.90;95.20;;;16.82;92.36;98541.41;4927205;29;20467;-76
2022/07/15 02:29:22;;;;;;;3.63;2.73;;;15.80;95.40;;;16.74;92.88;98532.94;4928380;29;20478;-76
2022/07/15 02:31:51;;;;;;;3.97;1.87;;;15.70;95.70;;;16.70;93.35;98537.00;4929794;29;20457;-76
2022/07/15 02:34:23;;;;;;;6.03;1.80;;;15.70;95.80;;;16.67;93.92;98540.91;4928634;29;20502;-76
2022/07/15 02:36:55;;;;;;;9.77;2.20;;;15.60;96.00;;;16.62;94.08;98537.28;4928894;29;20442;-76
2022/07/15 02:39:25;;;;;;;2.77;2.17;;;15.60;96.00;;;16.63;94.14;98538.88;4927879;29;20550;-76
2022/07/15 02:41:54;;;;;;;5.70;1.60;;;15.60;95.90;;;16.60;93.80;98538.31;4925342;29;20989;-76
2022/07/15 02:44:25;;;;;;;5.90;2.60;;;15.60;95.80;;;16.62;93.59;98553.13;4926606;29;21250;-76
2022/07/15 02:46:56;;;;;;;3.63;2.00;;;15.60;95.70;;;16.56;93.83;98549.50;4923626;29;20459;-76
2022/07/15 02:49:26;;;;;;;4.93;2.30;;;15.60;95.70;;;16.47;95.03;98548.94;4925800;29;20478;-76
2022/07/15 02:51:58;;;;;;;4.07;2.20;;;15.50;95.90;;;16.44;95.26;98552.00;4924439;29;20480;-76
2022/07/15 02:54:28;;;;;;;2.23;1.90;;;15.40;96.00;;;16.42;95.53;98556.66;4925146;29;20515;-76
2022/07/15 02:56:59;;;;;;;4.00;2.00;;;15.40;96.20;;;16.42;95.00;98551.38;4925694;29;20481;-76
2022/07/15 02:59:29;;;;;;;3.63;1.70;;;15.40;96.10;;;16.38;95.32;98554.66;4926574;29;20832;-76
2022/07/15 03:01:59;;;;;;;4.00;2.40;;;15.40;96.10;;;16.36;95.57;98565.44;4924718;29;20757;-76
2022/07/15 03:04:29;;;;;;;3.33;1.97;;;15.30;96.00;;;16.26;96.08;98559.78;4924285;29;20471;-76
2022/07/15 03:07:01;;;;;;;2.90;2.23;;;15.30;96.10;;;16.26;96.16;98562.44;4925886;29;21126;-76
2022/07/15 03:09:30;;;;;;;3.07;1.93;;;15.30;96.10;;;16.18;96.87;98572.41;4928913;29;20501;-76
2022/07/15 03:12:00;;;;;;;3.87;2.37;;;15.20;96.20;;;16.15;96.26;98573.66;4928423;29;20484;-78
2022/07/15 03:14:30;;;;;;;2.23;1.80;;;15.30;95.90;;;16.17;97.08;98568.97;4923848;29;20537;-76
2022/07/15 03:17:00;;;;;;;6.10;2.13;;;15.20;96.30;;;16.07;97.34;98566.78;4927356;29;20474;-76
2022/07/15 03:19:30;;;;;;;5.27;2.23;;;15.00;96.40;;;16.03;97.70;98573.50;4929049;29;20505;-76
2022/07/15 03:22:01;;;;;;;20.67;5.33;;;15.00;96.40;;;15.95;98.39;98567.63;4925783;29;21526;-81
2022/07/15 03:24:31;;;;;;;4.10;2.03;;;15.00;96.60;;;15.97;98.35;98565.59;4927991;29;20525;-78
2022/07/15 03:27:01;;;;;;;12.77;2.73;;;15.00;96.50;;;15.92;98.86;98574.16;4927371;29;20470;-76
2022/07/15 03:29:31;;;;;;;5.10;2.17;;;14.90;96.80;;;15.88;99.44;98572.94;4928595;29;20899;-76
2022/07/15 03:32:01;;;;;;;3.10;2.10;;;14.80;96.80;;;15.82;99.77;98578.22;4927848;29;20447;-76
2022/07/15 03:34:30;;;;;;;4.47;2.23;;;14.80;96.70;;;15.81;99.98;98579.25;4911928;29;20450;-77
2022/07/15 03:37:02;;;;;;;7.07;2.37;;;14.80;97.00;;;15.81;99.93;98569.50;4928032;29;20843;-76
2022/07/15 03:39:31;;;;;;;4.10;2.07;;;14.80;96.60;;;15.73;100.00;98577.63;4928093;29;20477;-76
2022/07/15 03:42:00;;;;;;;4.50;2.50;;;14.80;96.70;;;15.67;100.00;98577.66;4928179;29;20508;-76
2022/07/15 03:44:30;;;;;;;29.57;11.77;;;14.80;96.70;;;15.67;100.00;98569.75;4926347;29;20495;-82
2022/07/15 03:47:00;;;;;;;3.27;2.07;;;14.70;97.30;;;15.68;100.00;98576.66;4923039;29;20499;-77
2022/07/15 03:49:31;;;;;;;3.53;2.20;;;14.70;96.80;;;15.70;100.00;98579.88;4923159;29;21021;-76
2022/07/15 03:52:01;;;;;;;3.17;1.90;;;14.70;96.80;;;15.68;100.00;98582.72;4925331;29;20896;-77
2022/07/15 03:54:31;;;;;;;3.93;2.13;;;14.70;96.80;;;15.71;100.00;98586.78;4927807;29;21136;-76
2022/07/15 03:57:00;;;;;;;4.40;2.23;;;14.70;97.10;;;15.72;100.00;98583.94;4927227;29;20542;-76
2022/07/15 03:59:31;;;;;;;3.00;2.07;;;14.80;97.10;;;15.80;100.00;98580.25;4927632;29;20945;-76
2022/07/15 04:02:01;;;;;;;2.50;1.90;;;14.80;97.20;;;15.80;100.00;98588.16;4930301;29;21017;-78
2022/07/15 04:04:33;;;;;;;3.90;2.30;;;14.80;96.80;;;15.84;100.00;98584.09;4929946;29;20462;-76
2022/07/15 04:07:05;;;;;;;5.77;2.90;;;14.80;97.00;;;15.79;100.00;98578.66;4930994;29;20474;-80
2022/07/15 04:09:34;;;;;;;5.80;2.70;;;14.80;97.10;;;15.81;100.00;98581.88;4931976;29;20473;-76
2022/07/15 04:12:07;;;;;;;6.83;2.40;;;14.90;97.10;;;15.81;100.00;98584.50;4930070;29;20493;-76
2022/07/15 04:14:37;;;;;;;2.90;2.60;;;14.80;97.10;;;15.80;100.00;98591.63;4931649;29;20447;-76
2022/07/15 04:17:06;;;;;;;2.97;1.73;;;14.80;97.10;;;15.79;100.00;98584.72;4931907;29;20992;-76
2022/07/15 04:19:35;;;;;;;4.30;1.90;;;14.90;97.30;;;15.78;100.00;98579.66;4931469;29;20467;-76
2022/07/15 04:22:08;;;;;;;7.43;2.17;;;14.80;97.50;;;15.81;100.00;98587.16;4932811;29;20534;-76
2022/07/15 04:24:39;;;;;;;5.37;3.20;;;14.80;97.30;;;15.83;100.00;98591.19;4932039;29;20478;-76
2022/07/15 04:27:09;;;;;;;4.43;2.23;;;14.90;97.10;;;15.87;100.00;98596.88;4934383;29;20459;-76
2022/07/15 04:29:39;;;;;;;2.57;2.20;;;14.90;97.40;;;15.92;100.00;98595.25;4932880;29;20470;-76
2022/07/15 04:32:09;;;;;;;3.30;2.30;;;14.90;97.40;;;15.93;100.00;98601.34;4931865;29;20477;-77
2022/07/15 04:34:39;;;;;;;2.90;2.20;;;14.90;97.50;;;15.91;100.00;98598.09;4933430;29;20454;-76
2022/07/15 04:37:11;;;;;;;3.30;2.00;;;14.90;97.40;;;15.92;100.00;98597.88;4933450;29;21073;-76
2022/07/15 04:39:40;;;;;;;4.20;2.43;;;14.90;97.60;;;15.96;100.00;98595.66;4931271;29;20814;-77
2022/07/15 04:42:10;;;;;;;4.00;2.20;;;14.90;97.30;;;15.96;100.00;98600.91;4931903;29;21006;-76
2022/07/15 04:44:41;;;;;;;5.33;2.73;;;15.00;97.40;;;15.95;100.00;98594.84;4931773;29;20483;-76
2022/07/15 04:47:11;;;;;;;4.83;2.40;;;14.90;97.50;;;15.97;100.00;98602.53;4932143;29;20466;-76
2022/07/15 04:52:30;;;;;;;3.00;2.10;;;14.90;97.50;;;16.02;100.00;98600.09;4929774;29;20475;-76
2022/07/15 04:55:00;;;;;;;3.23;2.50;;;15.00;97.70;;;16.07;100.00;98608.16;4931888;29;20462;-76
2022/07/15 04:57:30;;;;;;;3.87;2.60;;;15.00;97.50;;;16.11;100.00;98601.47;4931184;29;20908;-76
2022/07/15 05:00:00;;;;;;;4.67;2.20;;;15.10;97.30;;;16.17;100.00;98616.47;4933473;29;20450;-76
2022/07/15 05:02:31;;;;;;;4.73;2.13;;;15.10;97.50;;;16.21;100.00;98607.09;4932488;29;20525;-76
2022/07/15 05:05:01;;;;;;;2.03;1.70;;;15.20;97.40;;;16.21;100.00;98612.38;4932253;29;20455;-76
2022/07/15 05:07:33;;;;;;;4.17;2.27;;;15.20;97.50;;;16.23;100.00;98620.91;4932554;29;20462;-76
2022/07/15 05:10:05;;;;;;;3.50;2.33;;;15.20;97.30;;;16.23;100.00;98615.66;4932778;29;20493;-76
2022/07/15 05:12:34;;;;;;;2.83;2.17;;;15.30;97.20;;;16.24;100.00;98613.81;4931765;29;20458;-76
2022/07/15 05:15:04;;;;;;;4.40;2.03;;;15.30;97.40;;;16.21;100.00;98615.03;4931312;29;20475;-77
2022/07/15 05:17:35;;;;;;;6.40;2.00;;;15.30;97.40;;;16.17;100.00;98621.75;4931585;29;20445;-77
2022/07/15 05:20:06;;;;;;;7.10;2.83;;;15.30;97.30;;;16.20;100.00;98618.72;4932090;29;20466;-76
2022/07/15 05:22:39;;;;;;;5.33;2.27;;;15.20;97.50;;;16.19;100.00;98619.72;4931574;29;20483;-76
2022/07/15 05:25:09;;;;;;;13.23;3.93;;;15.30;97.50;;;16.17;100.00;98615.66;4932104;29;20471;-76
2022/07/15 05:27:40;;;;;;;6.40;2.23;;;15.30;97.50;;;16.21;100.00;98620.31;4931288;29;20462;-76
2022/07/15 05:30:15;;;;;;;3.87;2.00;;;15.30;97.60;;;16.24;100.00;98630.47;4931829;29;20458;-76
2022/07/15 05:32:45;;;;;;;3.30;1.87;;;15.30;97.70;;;16.22;100.00;98621.94;4931109;29;20898;-76
2022/07/15 05:35:16;;;;;;;7.60;2.30;;;15.30;97.70;;;16.23;100.00;98623.56;4932518;29;20463;-76
2022/07/15 05:37:47;;;;;;;12.90;1.90;;;15.30;97.80;;;16.27;100.00;98627.41;4931061;29;20463;-76
2022/07/15 05:40:17;;;;;;;3.03;1.90;;;15.30;98.00;;;16.29;100.00;98632.47;4931111;29;20456;-77
2022/07/15 05:42:47;;;;;;;3.47;2.20;;;15.40;97.90;;;16.31;100.00;98644.44;4931557;29;20576;-76
2022/07/15 05:45:17;;;;;;;3.60;1.97;;;15.40;98.20;;;16.32;100.00;98639.97;4930769;29;20462;-76
2022/07/15 05:47:49;;;;;;;4.13;2.30;;;15.40;98.00;;;16.35;100.00;98640.34;4930746;29;20962;-76
2022/07/15 05:50:21;;;;;;;4.10;1.93;;;15.40;98.10;;;16.38;100.00;98641.78;4931722;29;20901;-77
2022/07/15 05:52:52;;;;;;;5.07;2.20;;;15.50;98.30;;;16.41;100.00;98631.63;4929969;29;20467;-76
2022/07/15 05:55:23;;;;;;;13.03;2.63;;;15.50;98.20;;;16.41;100.00;98631.63;4931231;29;20465;-76
2022/07/15 05:57:54;;;;;;;8.20;3.20;;;15.50;98.20;;;16.46;100.00;98628.31;4930889;29;20936;-76
2022/07/15 06:00:25;;;;;;;2.70;2.33;;;15.60;98.40;;;16.53;100.00;98623.81;4929505;29;20473;-76
2022/07/15 06:02:56;;;;;;;3.07;2.07;;;15.60;98.60;;;16.59;100.00;98629.09;4931153;29;20489;-76
2022/07/15 06:05:27;;;;;;;3.50;2.27;;;15.60;98.60;;;16.66;100.00;98633.56;4930162;29;20471;-76
2022/07/15 06:07:58;;;;;;;3.60;2.67;;;15.70;98.90;;;16.71;100.00;98625.81;4932620;29;20533;-76
2022/07/15 06:10:28;;;;;;;4.30;2.63;;;15.70;98.90;;;16.78;100.00;98632.69;4931665;29;20494;-76
2022/07/15 06:12:59;;;;;;;3.70;2.40;;;15.80;98.90;;;16.88;100.00;98632.19;4930709;29;21020;-76
2022/07/15 06:15:28;;;;;;;10.77;2.50;;;15.90;98.70;;;16.96;100.00;98631.97;4931485;29;20802;-76
2022/07/15 06:17:57;;;;;;;7.20;2.17;;;16.00;98.50;;;17.04;100.00;98626.44;4930271;29;20474;-76
2022/07/15 06:20:29;;;;;;;5.30;2.20;;;16.10;98.30;;;17.08;100.00;98627.59;4931478;29;20482;-76
2022/07/15 06:23:00;;;;;;;13.00;2.60;;;16.10;98.20;;;17.11;100.00;98635.91;4931364;29;20494;-76
2022/07/15 06:25:30;;;;;;;3.73;2.20;;;16.20;97.60;;;17.15;100.00;98635.50;4929813;29;20463;-76
2022/07/15 06:28:01;;;;;;;5.33;2.47;;;16.20;97.30;;;17.17;100.00;98631.63;4929078;29;20524;-76
2022/07/15 06:30:32;;;;;;;11.50;2.20;;;16.30;97.40;;;17.23;100.00;98630.75;4930513;29;20547;-76
2022/07/15 06:33:03;;;;;;;4.03;2.43;;;16.40;97.40;;;17.31;100.00;98632.31;4931751;29;21008;-76
2022/07/15 06:35:33;;;;;;;4.70;2.07;;;16.50;97.60;;;17.37;100.00;98624.34;4929448;29;20475;-76
2022/07/15 06:38:03;;;;;;;8.07;2.70;;;16.50;97.60;;;17.40;100.00;98634.47;4930764;29;21038;-76
2022/07/15 06:40:35;;;;;;;3.93;2.10;;;16.60;97.20;;;17.43;100.00;98633.22;4931926;29;20466;-76
2022/07/15 06:43:05;;;;;;;10.00;3.10;;;16.70;97.00;;;17.49;100.00;98625.22;4928231;29;20913;-76
2022/07/15 06:45:35;;;;;;;2.90;1.90;;;16.70;97.10;;;17.56;100.00;98620.72;4930917;29;20443;-76
2022/07/15 06:48:06;;;;;;;5.07;2.37;;;16.70;97.20;;;17.65;100.00;98617.81;4930958;29;20513;-76
2022/07/15 06:50:35;;;;;;;8.33;2.20;;;16.80;97.10;;;17.71;100.00;98616.94;4930249;29;20455;-76
2022/07/15 06:53:07;;;;;;;5.33;2.50;;;16.90;97.00;;;17.77;100.00;98611.56;4930928;29;20442;-77
2022/07/15 06:55:39;;;;;;;6.70;2.80;;;16.90;97.10;;;17.85;99.80;98618.44;4931314;29;20542;-76
2022/07/15 06:58:09;;;;;;;3.50;2.37;;;17.00;97.00;;;17.91;98.94;98622.88;4931150;29;20447;-76
2022/07/15 07:00:40;;;;;;;4.50;2.47;;;17.10;96.80;;;17.97;98.23;98621.97;4931421;29;20458;-76
2022/07/15 07:03:10;;;;;;;9.23;3.13;;;17.10;96.70;;;17.99;96.99;98623.38;4930877;29;20490;-76
2022/07/15 07:05:41;;;;;;;19.17;3.57;;;17.20;96.50;;;18.06;96.46;98620.66;4930135;29;20462;-76
2022/07/15 07:08:12;;;;;;;8.43;3.40;;;17.20;96.50;;;18.08;95.43;98623.91;4930827;29;20859;-76
2022/07/15 07:10:42;;;;;;;8.53;3.60;;;17.30;96.10;;;18.11;94.04;98620.81;4930562;29;20855;-76
2022/07/15 07:13:12;;;;;;;6.87;2.50;;;17.30;95.80;;;18.18;94.44;98613.59;4930127;29;20458;-76
2022/07/15 07:15:41;;;;;;;4.57;2.60;;;17.40;96.20;;;18.23;95.20;98616.38;4931277;29;20486;-76
2022/07/15 07:18:12;;;;;;;8.00;3.20;;;17.40;96.30;;;18.24;93.85;98623.28;4930640;29;20475;-76
2022/07/15 07:20:43;;;;;;;11.43;3.10;;;17.40;96.00;;;18.32;93.17;98620.34;4930091;29;21040;-76
2022/07/15 07:23:15;;;;;;;9.20;3.53;;;17.50;95.80;;;18.38;92.41;98624.75;4929707;29;20510;-76
2022/07/15 07:25:44;;;;;;;9.43;3.87;;;17.50;95.70;;;18.41;90.70;98628.78;4930038;29;20505;-76
2022/07/15 07:28:13;;;;;;;12.33;3.23;;;17.60;95.30;;;18.46;91.01;98632.41;4929717;29;20891;-76
2022/07/15 07:30:45;;;;;;;4.87;3.97;;;17.60;95.60;;;18.51;90.92;98623.81;4930327;29;20455;-76
2022/07/15 07:33:14;;;;;;;8.90;3.43;;;17.70;95.60;;;18.54;89.76;98626.81;4929667;29;20454;-75
2022/07/15 07:35:43;;;;;;;4.83;3.20;;;17.70;95.20;;;18.60;89.96;98628.56;4931121;29;20490;-76
2022/07/15 07:38:15;;;;;;;8.93;4.10;;;17.80;95.30;;;18.65;89.75;98624.44;4933813;29;20462;-76
2022/07/15 07:40:47;;;;;;;6.23;3.83;;;17.80;95.40;;;18.69;89.23;98637.03;4933918;29;20495;-76
2022/07/15 07:43:18;;;;;;;7.43;4.30;;;17.80;95.20;;;18.76;89.13;98636.94;4933719;29;20489;-75
2022/07/15 07:45:49;;;;;;;9.33;3.80;;;18.00;95.30;;;18.80;88.82;98638.91;4932976;29;20541;-76
2022/07/15 07:48:19;;;;;;;8.40;4.00;;;18.00;95.10;;;18.83;87.94;98621.75;4933268;29;20815;-76
2022/07/15 07:50:49;;;;;;;8.97;5.57;;;18.00;95.00;;;18.86;87.99;98632.72;4933788;28;20537;-76
2022/07/15 07:53:21;;;;;;;13.13;4.97;;;17.90;94.90;;;18.92;87.00;98625.69;4932940;29;20446;-76
2022/07/15 07:55:51;;;;;;;15.00;4.77;;;18.00;94.80;;;18.95;86.31;98625.25;4932362;29;20451;-76
2022/07/15 07:58:21;;;;;;;9.70;3.90;;;18.10;94.60;;;19.00;86.78;98630.69;4934375;29;20466;-76
2022/07/15 08:00:52;;;;;;;7.53;4.57;;;18.20;94.70;;;19.02;85.16;98628.63;4933631;29;20505;-76
2022/07/15 08:03:22;;;;;;;10.90;3.97;;;18.30;94.40;;;19.07;85.52;98628.72;4933629;29;20997;-76
2022/07/15 08:05:53;;;;;;;4.43;3.80;;;18.30;94.50;;;19.07;84.17;98618.94;4933384;29;20469;-76
2022/07/15 08:08:24;;;;;;;7.10;4.03;;;18.30;94.00;;;19.15;84.52;98631.06;4933022;29;20601;-76
2022/07/15 08:10:55;;;;;;;7.97;4.53;;;18.40;94.30;;;19.24;83.93;98628.88;4932680;29;20993;-76
2022/07/15 08:13:28;;;;;;;6.57;4.23;;;18.40;94.20;;;19.28;83.24;98620.25;4932554;29;20454;-76
2022/07/15 08:15:57;;;;;;;7.43;4.53;;;18.40;93.90;;;19.32;81.47;98624.06;4931798;29;21033;-76
2022/07/15 08:18:37;;;;;;;8.43;5.00;;;18.60;93.70;;;19.34;80.94;98629.94;4932953;29;20981;-76
2022/07/15 08:21:08;;;;;;;8.93;4.27;;;18.50;93.50;;;19.36;80.50;98616.47;4933770;29;20518;-76
2022/07/15 08:23:40;;;;;;;7.90;3.83;;;18.60;93.50;;;19.39;80.50;98622.13;4932077;29;20860;-76
2022/07/15 08:26:11;;;;;;;13.03;4.80;;;18.60;93.40;;;19.46;80.59;98617.53;4932980;29;20459;-76
2022/07/15 08:28:41;;;;;;;8.10;4.70;;;18.60;93.50;;;19.55;80.38;98624.13;4934553;29;20934;-76
2022/07/15 08:31:31;;;;;;;12.20;3.90;;;18.80;93.50;;;19.59;78.91;98617.31;4932929;29;21471;-76
2022/07/15 08:34:02;;;;;;;8.87;4.20;;;18.80;93.10;;;19.64;79.06;98618.47;4933318;29;20449;-76
2022/07/15 08:36:33;;;;;;;5.23;4.27;;;18.80;93.10;;;19.70;77.34;98618.34;4932807;29;20464;-76
2022/07/15 08:39:03;;;;;;;7.27;4.50;;;19.00;92.90;;;19.76;76.74;98621.91;4932083;29;20457;-76
2022/07/15 08:41:37;;;;;;;8.60;4.53;;;19.00;92.60;;;19.83;76.84;98617.28;4932994;29;20461;-76
2022/07/15 08:44:07;;;;;;;11.60;4.03;;;19.00;92.70;;;19.87;75.33;98613.13;4933062;29;21142;-76
2022/07/15 08:46:42;;;;;;;13.77;4.87;;;19.00;92.30;;;19.98;74.34;98609.69;4932710;29;20454;-76
2022/07/15 08:49:16;;;;;;;9.27;4.30;;;19.30;92.30;;;20.02;74.12;98624.09;4932663;29;20814;-76
2022/07/15 08:51:48;;;;;;;10.63;4.60;;;19.20;91.90;;;20.04;72.19;98625.47;4932518;29;20450;-77
2022/07/15 08:54:19;;;;;;;11.60;4.10;;;19.30;91.60;;;20.08;72.15;98625.81;4933775;29;20505;-76
2022/07/15 08:56:51;;;;;;;8.37;3.73;;;19.30;91.80;;;20.12;72.13;98621.66;4932205;29;20503;-76
2022/07/15 08:59:21;;;;;;;6.27;3.57;;;19.30;91.70;;;20.14;69.10;98622.22;4932860;29;20835;-76
2022/07/15 09:01:51;;;;;;;7.27;3.60;;;19.40;91.10;;;20.17;68.50;98628.91;4932309;29;20454;-76
2022/07/15 09:04:20;;;;;;;5.40;3.80;;;19.50;91.00;;;20.18;67.38;98627.88;4932357;29;21005;-76
2022/07/15 09:06:51;;;;;;;12.30;3.83;;;19.50;90.70;;;20.20;67.90;98623.94;4930462;29;20471;-76
2022/07/15 09:09:32;;;;;;;5.60;3.73;;;19.50;90.80;;;20.20;68.03;98618.63;4931990;29;20506;-76
2022/07/15 09:12:05;;;;;;;5.70;3.53;;;19.60;90.80;;;20.19;67.96;98632.97;4930804;29;20518;-76
2022/07/15 09:14:45;;;;;;;7.07;4.00;;;19.50;90.70;;;20.19;66.50;98622.34;4931977;29;20529;-76
2022/07/15 09:17:27;;;;;;;5.17;3.33;;;19.40;90.40;;;20.27;66.74;98627.28;4931356;29;20482;-76
2022/07/15 09:20:14;;;;;;;6.03;4.03;;;19.50;90.60;;;20.34;66.83;98617.34;4930817;29;20463;-76
2022/07/15 09:22:55;;;;;;;5.03;3.63;;;19.60;90.80;;;20.40;66.06;98613.78;4931980;29;20458;-76
2022/07/15 09:25:28;;;;;;;16.80;4.00;;;19.50;90.60;;;20.49;64.99;98609.69;4932005;29;20490;-76
2022/07/15 09:28:01;;;;;;;4.60;3.00;;;19.70;90.30;;;20.57;64.63;98613.81;4930711;29;20938;-76
2022/07/15 09:33:35;;;;;;;6.80;3.40;;;19.70;88.80;;;20.59;61.18;98611.72;4930838;29;20455;-76
2022/07/15 09:36:12;;;;;;;4.73;3.13;;;19.90;88.70;;;20.56;61.04;98607.69;4930275;29;20459;-76
2022/07/15 09:38:47;;;;;;;4.80;2.80;;;19.90;88.50;;;20.64;61.28;98613.69;4931517;29;20518;-76
2022/07/15 09:41:36;;;;;;;7.90;3.97;;;19.90;88.50;;;20.64;61.58;98619.00;4931351;29;20514;-76
2022/07/15 09:44:09;;;;;;;13.17;3.40;;;19.80;88.80;;;20.67;62.21;98615.84;4931200;29;20491;-76
2022/07/15 09:46:46;;;;;;;6.97;3.90;;;19.80;89.50;;;20.66;61.59;98614.22;4931174;29;21008;-76
2022/07/15 09:49:32;;;;;;;5.33;3.87;;;19.80;89.10;;;20.70;62.44;98607.41;4930772;29;20482;-76
2022/07/15 09:52:07;;;;;;;5.73;3.40;;;20.00;89.70;;;20.78;62.26;98610.50;4931939;29;20537;-76
2022/07/15 09:54:40;;;;;;;7.50;3.90;;;20.00;89.50;;;20.82;60.61;98611.63;4931016;29;20439;-76
2022/07/15 09:57:14;;;;;;;4.97;3.43;;;20.00;88.20;;;20.84;58.90;98598.91;4931329;29;20934;-76
2022/07/15 09:59:45;;;;;;;8.03;3.53;;;20.10;87.00;;;20.90;57.52;98599.78;4931086;29;20526;-76
2022/07/15 10:02:15;;;;;;;5.03;2.93;;;20.30;86.10;;;20.91;57.03;98602.22;4930833;29;20482;-76
2022/07/15 10:04:46;;;;;;;5.33;3.10;;;20.30;85.20;;;20.95;56.91;98606.03;4931360;29;20505;-76
2022/07/15 10:07:20;;;;;;;3.97;2.70;;;20.30;85.50;;;20.96;56.87;98607.59;4931628;29;20825;-76
2022/07/15 10:10:00;;;;;;;6.07;3.30;;;20.40;85.70;;;20.96;56.78;98601.50;4931291;29;20550;-76
2022/07/15 10:12:54;;;;;;;5.40;2.47;;;20.30;85.40;;;21.00;56.55;98598.13;4930887;29;20455;-77
2022/07/15 10:15:41;;;;;;;4.83;3.03;;;20.30;85.00;;;21.08;57.35;98588.94;4930826;29;20451;-76
2022/07/15 10:18:37;;;;;;;7.30;2.80;;;20.40;86.40;;;21.16;57.32;98588.56;4930448;29;20820;-76
2022/07/15 10:21:25;;;;;;;9.47;3.57;;;20.50;86.40;;;21.27;57.08;98587.69;4931247;29;20446;-76
2022/07/15 10:24:39;;;;;;;5.10;3.30;;;20.60;86.00;;;21.31;54.86;98583.47;4929513;29;20455;-76
2022/07/15 10:27:39;;;;;;;8.93;3.40;;;20.70;84.10;;;21.34;55.22;98590.19;4870877;29;20529;-76
2022/07/15 10:30:10;;;;;;;5.50;2.93;;;20.70;84.50;;;21.39;55.33;98585.75;4924742;29;20859;-76
2022/07/15 10:33:13;;;;;;;5.40;3.00;;;20.80;84.70;;;21.42;55.72;98585.25;4931061;29;20439;-76
2022/07/15 10:35:48;;;;;;;3.87;3.10;;;20.70;86.10;;;21.45;56.70;98579.44;4927705;29;20459;-76
2022/07/15 10:38:31;;;;;;;6.13;2.90;;;20.70;86.30;;;21.45;54.77;98570.69;4931218;29;20454;-76
2022/07/15 10:41:04;;;;;;;5.50;3.47;;;20.70;84.60;;;21.49;54.08;98577.09;4929715;29;20462;-76
2022/07/15 10:43:50;;;;;;;5.13;3.00;;;20.70;83.70;;;21.53;53.88;98573.72;4929468;29;20505;-76